Guangzhou Baiyun International Airport
ZGGG : now visible

Airfield :











YOU CAN JOIN US ON...

 
LOGIN :

Register | Disclaimer

   EN    FR    IT 

 









Legend :    VFR   Marginal VFR   IFR   Intensive IFR   Very Intensive IFR
Visi :
Ceiling :
>= 8 km
>= 3000ft
5 to 8 km
1000 to 3000 ft
1500m to 5 km
500 to 1000 ft
800 to 1500m
200 to 500 ft
< 800m
< 200 ft
Symbols :   Thunderstorms  Fog  Heavy snow  Heavy precipitations  Wind > 20 kt






- Airport Elevation : 50 ft
- IATA code : CAN


ZGGG - Guangzhou Baiyun International

CURRENT METAR :
  • 022200Z 04003MPS CAVOK 27/25 Q0997 NOSIG

EXPIRED METARs :
  • 022130Z 05003MPS CAVOK 27/25 Q0997 NOSIG
  • 022100Z 06002MPS CAVOK 27/25 Q0997 NOSIG
  • 022030Z 08001MPS 9999 -SHRA FEW040CB 27/25 Q0997 NOSIG
  • 022000Z 11002MPS 080V140 9999 -SHRA FEW033CB BKN033 27/25 Q0997 NOSIG
  • 021930Z 09003MPS 9999 -SHRA FEW033CB BKN033 28/24 Q0997 TEMPO TL2030 SHRA

TAF TAF ZGGG
Valid from the 02 at 18:00 until the 03 at 18:00 UTC


021510Z 0218/0318 14003MPS 8000 BKN040 TX35/0307Z TN27/0222Z
TEMPO 0218/0222 2500 TSRA SCT030CB BKN033
TEMPO 0300/0305 3500 SHRA FEW030CB BKN033
TEMPO 0305/0311 2000 TSRA SCT010 SCT030CB BKN033
ZGZU FIR / Asia



MET'MAP, your aeronautical weather chart ! - Copyright ORBIFLY December 2007 - Disclaimer

ORBIFLY MET'MAP TEAM :

Programming & Development : Alexandra Zaïnal
Concept & original design : Baudouin d'Aumeries
Assistance for programming : Marc-Olivier Méhu
Technical & hardware support : Manuel Goepfert

Contact : metmap@orbifly.com




SOURCES & CREDITS :

   NOAA       Earth
Advisory